sensor_id;sensor_type;location;lat;lon;timestamp;P1;durP1;ratioP1;P2;durP2;ratioP2
30020;SDS011;16861;52.294;7.760;2023-03-14T00:03:36;9.07;;;3.08;;
30020;SDS011;16861;52.294;7.760;2023-03-14T00:06:03;11.70;;;3.30;;
30020;SDS011;16861;52.294;7.760;2023-03-14T00:08:30;10.80;;;3.05;;
30020;SDS011;16861;52.294;7.760;2023-03-14T00:10:57;7.88;;;2.92;;
30020;SDS011;16861;52.294;7.760;2023-03-14T00:13:24;9.43;;;2.65;;
30020;SDS011;16861;52.294;7.760;2023-03-14T00:15:51;12.93;;;4.03;;
30020;SDS011;16861;52.294;7.760;2023-03-14T00:18:17;7.57;;;3.00;;
30020;SDS011;16861;52.294;7.760;2023-03-14T00:20:46;10.38;;;3.85;;
30020;SDS011;16861;52.294;7.760;2023-03-14T00:23:12;6.95;;;3.13;;
30020;SDS011;16861;52.294;7.760;2023-03-14T00:25:39;9.70;;;2.50;;
30020;SDS011;16861;52.294;7.760;2023-03-14T00:28:05;12.07;;;2.92;;
30020;SDS011;16861;52.294;7.760;2023-03-14T00:30:31;6.90;;;3.13;;
30020;SDS011;16861;52.294;7.760;2023-03-14T00:32:58;10.38;;;3.15;;
30020;SDS011;16861;52.294;7.760;2023-03-14T00:35:24;9.85;;;2.92;;
30020;SDS011;16861;52.294;7.760;2023-03-14T00:37:51;8.85;;;2.58;;
30020;SDS011;16861;52.294;7.760;2023-03-14T00:40:17;13.18;;;3.45;;
30020;SDS011;16861;52.294;7.760;2023-03-14T00:42:44;6.80;;;2.70;;
30020;SDS011;16861;52.294;7.760;2023-03-14T00:45:11;6.32;;;2.65;;
30020;SDS011;16861;52.294;7.760;2023-03-14T00:47:37;6.53;;;2.65;;
30020;SDS011;16861;52.294;7.760;2023-03-14T00:50:04;8.15;;;2.47;;
30020;SDS011;16861;52.294;7.760;2023-03-14T00:52:31;7.43;;;2.25;;
30020;SDS011;16861;52.294;7.760;2023-03-14T00:54:58;8.98;;;2.63;;
30020;SDS011;16861;52.294;7.760;2023-03-14T00:57:24;6.22;;;1.88;;
30020;SDS011;16861;52.294;7.760;2023-03-14T00:59:51;8.35;;;2.13;;
30020;SDS011;16861;52.294;7.760;2023-03-14T01:02:18;11.77;;;2.72;;
30020;SDS011;16861;52.294;7.760;2023-03-14T01:04:46;7.25;;;2.10;;
30020;SDS011;16861;52.294;7.760;2023-03-14T01:07:13;9.82;;;2.30;;
30020;SDS011;16861;52.294;7.760;2023-03-14T01:09:40;12.73;;;2.88;;
30020;SDS011;16861;52.294;7.760;2023-03-14T01:12:07;6.75;;;2.42;;
30020;SDS011;16861;52.294;7.760;2023-03-14T01:16:58;7.67;;;2.30;;
30020;SDS011;16861;52.294;7.760;2023-03-14T01:19:27;13.25;;;2.80;;
30020;SDS011;16861;52.294;7.760;2023-03-14T01:21:54;10.68;;;2.67;;
30020;SDS011;16861;52.294;7.760;2023-03-14T01:24:21;9.77;;;2.20;;
30020;SDS011;16861;52.294;7.760;2023-03-14T01:26:47;7.38;;;2.17;;
30020;SDS011;16861;52.294;7.760;2023-03-14T01:29:14;7.40;;;2.10;;
30020;SDS011;16861;52.294;7.760;2023-03-14T01:31:40;9.98;;;2.78;;
30020;SDS011;16861;52.294;7.760;2023-03-14T01:34:07;6.30;;;2.17;;
30020;SDS011;16861;52.294;7.760;2023-03-14T01:36:33;10.35;;;2.70;;
30020;SDS011;16861;52.294;7.760;2023-03-14T01:38:59;8.55;;;2.67;;
30020;SDS011;16861;52.294;7.760;2023-03-14T01:41:26;8.90;;;2.85;;
30020;SDS011;16861;52.294;7.760;2023-03-14T01:43:53;8.45;;;2.22;;
30020;SDS011;16861;52.294;7.760;2023-03-14T01:46:20;11.07;;;2.80;;
30020;SDS011;16861;52.294;7.760;2023-03-14T01:48:55;8.93;;;2.92;;
30020;SDS011;16861;52.294;7.760;2023-03-14T01:53:59;6.78;;;2.30;;
30020;SDS011;16861;52.294;7.760;2023-03-14T01:56:32;13.40;;;2.60;;
30020;SDS011;16861;52.294;7.760;2023-03-14T01:58:59;6.13;;;2.58;;
30020;SDS011;16861;52.294;7.760;2023-03-14T02:01:29;6.75;;;2.55;;
30020;SDS011;16861;52.294;7.760;2023-03-14T02:03:56;7.85;;;2.22;;
30020;SDS011;16861;52.294;7.760;2023-03-14T02:06:27;8.07;;;2.05;;
30020;SDS011;16861;52.294;7.760;2023-03-14T02:09:00;4.55;;;1.60;;
30020;SDS011;16861;52.294;7.760;2023-03-14T02:11:28;7.57;;;2.42;;
30020;SDS011;16861;52.294;7.760;2023-03-14T02:13:56;7.72;;;2.45;;
30020;SDS011;16861;52.294;7.760;2023-03-14T02:16:24;11.38;;;3.05;;
30020;SDS011;16861;52.294;7.760;2023-03-14T02:18:51;6.80;;;2.47;;
30020;SDS011;16861;52.294;7.760;2023-03-14T02:24:17;11.13;;;2.63;;
30020;SDS011;16861;52.294;7.760;2023-03-14T02:27:01;5.97;;;2.22;;
30020;SDS011;16861;52.294;7.760;2023-03-14T02:29:36;9.75;;;2.42;;
30020;SDS011;16861;52.294;7.760;2023-03-14T02:32:08;9.02;;;2.65;;
30020;SDS011;16861;52.294;7.760;2023-03-14T02:34:35;7.85;;;2.60;;
30020;SDS011;16861;52.294;7.760;2023-03-14T02:37:02;10.27;;;2.75;;
30020;SDS011;16861;52.294;7.760;2023-03-14T02:39:41;5.38;;;2.38;;
30020;SDS011;16861;52.294;7.760;2023-03-14T02:42:11;12.13;;;2.60;;
30020;SDS011;16861;52.294;7.760;2023-03-14T02:44:55;9.02;;;2.60;;
30020;SDS011;16861;52.294;7.760;2023-03-14T02:47:29;6.88;;;2.65;;
30020;SDS011;16861;52.294;7.760;2023-03-14T02:50:01;5.97;;;2.20;;
30020;SDS011;16861;52.294;7.760;2023-03-14T02:52:32;6.63;;;2.35;;
30020;SDS011;16861;52.294;7.760;2023-03-14T02:54:58;8.20;;;2.50;;
30020;SDS011;16861;52.294;7.760;2023-03-14T02:57:25;7.80;;;2.90;;
30020;SDS011;16861;52.294;7.760;2023-03-14T02:59:51;6.45;;;2.55;;
30020;SDS011;16861;52.294;7.760;2023-03-14T03:02:18;7.43;;;2.65;;
30020;SDS011;16861;52.294;7.760;2023-03-14T03:04:44;7.07;;;2.40;;
30020;SDS011;16861;52.294;7.760;2023-03-14T03:07:11;9.30;;;2.22;;
30020;SDS011;16861;52.294;7.760;2023-03-14T03:09:37;7.03;;;2.10;;
30020;SDS011;16861;52.294;7.760;2023-03-14T03:12:03;11.88;;;2.58;;
30020;SDS011;16861;52.294;7.760;2023-03-14T03:14:30;8.15;;;1.98;;
30020;SDS011;16861;52.294;7.760;2023-03-14T03:16:56;8.07;;;2.20;;
30020;SDS011;16861;52.294;7.760;2023-03-14T03:19:23;7.50;;;2.15;;
30020;SDS011;16861;52.294;7.760;2023-03-14T03:21:49;7.70;;;1.83;;
30020;SDS011;16861;52.294;7.760;2023-03-14T03:24:16;4.47;;;2.08;;
30020;SDS011;16861;52.294;7.760;2023-03-14T03:26:42;4.38;;;1.65;;
30020;SDS011;16861;52.294;7.760;2023-03-14T03:29:09;7.90;;;1.90;;
30020;SDS011;16861;52.294;7.760;2023-03-14T03:31:36;7.88;;;1.90;;
30020;SDS011;16861;52.294;7.760;2023-03-14T03:34:03;9.15;;;2.28;;
30020;SDS011;16861;52.294;7.760;2023-03-14T03:36:30;9.50;;;1.80;;
30020;SDS011;16861;52.294;7.760;2023-03-14T03:38:57;7.30;;;1.90;;
30020;SDS011;16861;52.294;7.760;2023-03-14T03:41:23;4.78;;;1.70;;
30020;SDS011;16861;52.294;7.760;2023-03-14T03:43:50;5.88;;;1.90;;
30020;SDS011;16861;52.294;7.760;2023-03-14T03:46:16;6.22;;;1.70;;
30020;SDS011;16861;52.294;7.760;2023-03-14T03:48:43;4.70;;;1.63;;
30020;SDS011;16861;52.294;7.760;2023-03-14T03:51:13;7.15;;;2.00;;
30020;SDS011;16861;52.294;7.760;2023-03-14T03:53:41;8.65;;;2.45;;
30020;SDS011;16861;52.294;7.760;2023-03-14T03:56:08;8.55;;;2.03;;
30020;SDS011;16861;52.294;7.760;2023-03-14T03:58:35;3.15;;;1.65;;
30020;SDS011;16861;52.294;7.760;2023-03-14T04:01:03;7.47;;;1.88;;
30020;SDS011;16861;52.294;7.760;2023-03-14T04:03:30;6.13;;;1.48;;
30020;SDS011;16861;52.294;7.760;2023-03-14T04:05:57;5.45;;;2.00;;
30020;SDS011;16861;52.294;7.760;2023-03-14T04:08:28;5.65;;;1.95;;
30020;SDS011;16861;52.294;7.760;2023-03-14T04:10:56;6.97;;;2.10;;
30020;SDS011;16861;52.294;7.760;2023-03-14T04:13:23;11.20;;;1.95;;
30020;SDS011;16861;52.294;7.760;2023-03-14T04:15:51;4.65;;;1.63;;
30020;SDS011;16861;52.294;7.760;2023-03-14T04:18:18;4.57;;;1.88;;
30020;SDS011;16861;52.294;7.760;2023-03-14T04:20:45;7.15;;;1.90;;
30020;SDS011;16861;52.294;7.760;2023-03-14T04:23:11;9.02;;;1.90;;
30020;SDS011;16861;52.294;7.760;2023-03-14T04:25:38;9.63;;;1.85;;
30020;SDS011;16861;52.294;7.760;2023-03-14T04:28:04;8.30;;;2.10;;
30020;SDS011;16861;52.294;7.760;2023-03-14T04:30:30;6.88;;;2.05;;
30020;SDS011;16861;52.294;7.760;2023-03-14T04:32:57;4.88;;;1.67;;
30020;SDS011;16861;52.294;7.760;2023-03-14T04:35:23;7.38;;;1.90;;
30020;SDS011;16861;52.294;7.760;2023-03-14T04:37:50;8.38;;;2.35;;
30020;SDS011;16861;52.294;7.760;2023-03-14T04:40:17;6.47;;;1.77;;
30020;SDS011;16861;52.294;7.760;2023-03-14T04:42:44;9.25;;;2.10;;
30020;SDS011;16861;52.294;7.760;2023-03-14T04:45:10;5.95;;;1.50;;
30020;SDS011;16861;52.294;7.760;2023-03-14T04:47:37;8.85;;;2.20;;
30020;SDS011;16861;52.294;7.760;2023-03-14T04:50:03;9.55;;;2.28;;
30020;SDS011;16861;52.294;7.760;2023-03-14T04:52:30;6.32;;;2.13;;
30020;SDS011;16861;52.294;7.760;2023-03-14T04:54:56;10.57;;;2.15;;
30020;SDS011;16861;52.294;7.760;2023-03-14T04:57:23;10.57;;;2.08;;
30020;SDS011;16861;52.294;7.760;2023-03-14T04:59:49;7.05;;;2.47;;
30020;SDS011;16861;52.294;7.760;2023-03-14T05:02:15;10.25;;;2.50;;
30020;SDS011;16861;52.294;7.760;2023-03-14T05:04:42;7.78;;;2.50;;
30020;SDS011;16861;52.294;7.760;2023-03-14T05:07:08;9.25;;;2.63;;
30020;SDS011;16861;52.294;7.760;2023-03-14T05:09:35;10.52;;;2.63;;
30020;SDS011;16861;52.294;7.760;2023-03-14T05:12:01;10.63;;;2.55;;
30020;SDS011;16861;52.294;7.760;2023-03-14T05:14:27;7.57;;;2.42;;
30020;SDS011;16861;52.294;7.760;2023-03-14T05:16:54;10.45;;;2.38;;
30020;SDS011;16861;52.294;7.760;2023-03-14T05:19:20;7.70;;;2.13;;
30020;SDS011;16861;52.294;7.760;2023-03-14T05:21:47;13.85;;;2.72;;
30020;SDS011;16861;52.294;7.760;2023-03-14T05:24:13;11.07;;;3.03;;
30020;SDS011;16861;52.294;7.760;2023-03-14T05:26:39;10.82;;;2.47;;
30020;SDS011;16861;52.294;7.760;2023-03-14T05:29:06;14.00;;;2.65;;
30020;SDS011;16861;52.294;7.760;2023-03-14T05:31:32;11.07;;;2.92;;
30020;SDS011;16861;52.294;7.760;2023-03-14T05:33:59;12.52;;;2.97;;
30020;SDS011;16861;52.294;7.760;2023-03-14T05:36:25;11.13;;;3.10;;
30020;SDS011;16861;52.294;7.760;2023-03-14T05:38:52;8.02;;;2.55;;
30020;SDS011;16861;52.294;7.760;2023-03-14T05:41:18;8.13;;;1.92;;
30020;SDS011;16861;52.294;7.760;2023-03-14T05:43:44;9.60;;;2.65;;
30020;SDS011;16861;52.294;7.760;2023-03-14T05:46:11;8.05;;;1.90;;
30020;SDS011;16861;52.294;7.760;2023-03-14T05:48:38;7.38;;;2.20;;
30020;SDS011;16861;52.294;7.760;2023-03-14T05:51:04;10.88;;;2.72;;
30020;SDS011;16861;52.294;7.760;2023-03-14T05:53:31;13.40;;;2.65;;
30020;SDS011;16861;52.294;7.760;2023-03-14T05:55:58;10.35;;;2.53;;
30020;SDS011;16861;52.294;7.760;2023-03-14T05:58:24;11.05;;;2.85;;
30020;SDS011;16861;52.294;7.760;2023-03-14T06:00:50;11.32;;;2.67;;
30020;SDS011;16861;52.294;7.760;2023-03-14T06:03:17;9.30;;;2.90;;
30020;SDS011;16861;52.294;7.760;2023-03-14T06:05:43;7.97;;;2.40;;
30020;SDS011;16861;52.294;7.760;2023-03-14T06:08:10;7.97;;;2.65;;
30020;SDS011;16861;52.294;7.760;2023-03-14T06:10:36;11.02;;;3.10;;
30020;SDS011;16861;52.294;7.760;2023-03-14T06:13:03;7.22;;;3.20;;
30020;SDS011;16861;52.294;7.760;2023-03-14T06:15:29;12.07;;;3.80;;
30020;SDS011;16861;52.294;7.760;2023-03-14T06:17:56;18.38;;;3.90;;
30020;SDS011;16861;52.294;7.760;2023-03-14T06:20:22;9.00;;;3.42;;
30020;SDS011;16861;52.294;7.760;2023-03-14T06:22:49;10.15;;;3.75;;
30020;SDS011;16861;52.294;7.760;2023-03-14T06:25:15;9.88;;;3.42;;
30020;SDS011;16861;52.294;7.760;2023-03-14T06:27:42;10.15;;;3.70;;
30020;SDS011;16861;52.294;7.760;2023-03-14T06:30:09;9.60;;;3.53;;
30020;SDS011;16861;52.294;7.760;2023-03-14T06:32:36;8.73;;;3.05;;
30020;SDS011;16861;52.294;7.760;2023-03-14T06:35:03;8.75;;;3.33;;
30020;SDS011;16861;52.294;7.760;2023-03-14T06:37:29;9.07;;;3.10;;
30020;SDS011;16861;52.294;7.760;2023-03-14T06:39:56;8.07;;;2.55;;
30020;SDS011;16861;52.294;7.760;2023-03-14T06:42:22;10.00;;;2.78;;
30020;SDS011;16861;52.294;7.760;2023-03-14T06:44:49;6.38;;;2.35;;
30020;SDS011;16861;52.294;7.760;2023-03-14T06:47:15;7.22;;;2.67;;
30020;SDS011;16861;52.294;7.760;2023-03-14T06:49:42;7.80;;;2.35;;
30020;SDS011;16861;52.294;7.760;2023-03-14T06:52:08;5.93;;;1.80;;
30020;SDS011;16861;52.294;7.760;2023-03-14T06:54:35;5.18;;;2.00;;
30020;SDS011;16861;52.294;7.760;2023-03-14T06:57:01;6.60;;;1.90;;
30020;SDS011;16861;52.294;7.760;2023-03-14T06:59:28;4.72;;;1.73;;
30020;SDS011;16861;52.294;7.760;2023-03-14T07:01:54;4.18;;;1.73;;
30020;SDS011;16861;52.294;7.760;2023-03-14T07:04:20;7.82;;;1.95;;
30020;SDS011;16861;52.294;7.760;2023-03-14T07:06:47;7.88;;;1.52;;
30020;SDS011;16861;52.294;7.760;2023-03-14T07:09:14;5.72;;;1.52;;
30020;SDS011;16861;52.294;7.760;2023-03-14T07:11:43;5.38;;;1.48;;
30020;SDS011;16861;52.294;7.760;2023-03-14T07:14:09;4.97;;;1.42;;
30020;SDS011;16861;52.294;7.760;2023-03-14T07:16:36;3.80;;;1.67;;
30020;SDS011;16861;52.294;7.760;2023-03-14T07:19:05;4.10;;;1.23;;
30020;SDS011;16861;52.294;7.760;2023-03-14T07:21:32;3.80;;;1.20;;
30020;SDS011;16861;52.294;7.760;2023-03-14T07:24:00;2.65;;;1.25;;
30020;SDS011;16861;52.294;7.760;2023-03-14T07:26:27;3.42;;;1.08;;
30020;SDS011;16861;52.294;7.760;2023-03-14T07:28:54;3.63;;;1.15;;
30020;SDS011;16861;52.294;7.760;2023-03-14T07:31:20;3.65;;;1.13;;
30020;SDS011;16861;52.294;7.760;2023-03-14T07:33:47;5.07;;;1.33;;
30020;SDS011;16861;52.294;7.760;2023-03-14T07:36:13;2.53;;;1.17;;
30020;SDS011;16861;52.294;7.760;2023-03-14T07:38:40;3.05;;;1.30;;
30020;SDS011;16861;52.294;7.760;2023-03-14T07:41:07;3.45;;;1.40;;
30020;SDS011;16861;52.294;7.760;2023-03-14T07:43:35;3.75;;;1.30;;
30020;SDS011;16861;52.294;7.760;2023-03-14T07:46:01;2.55;;;1.20;;
30020;SDS011;16861;52.294;7.760;2023-03-14T07:48:28;4.65;;;1.38;;
30020;SDS011;16861;52.294;7.760;2023-03-14T07:50:55;3.08;;;1.23;;
30020;SDS011;16861;52.294;7.760;2023-03-14T07:53:22;3.35;;;1.50;;
30020;SDS011;16861;52.294;7.760;2023-03-14T07:55:52;3.72;;;1.27;;
30020;SDS011;16861;52.294;7.760;2023-03-14T07:58:20;2.28;;;1.10;;
30020;SDS011;16861;52.294;7.760;2023-03-14T08:00:50;3.15;;;1.27;;
30020;SDS011;16861;52.294;7.760;2023-03-14T08:03:18;1.75;;;1.10;;
30020;SDS011;16861;52.294;7.760;2023-03-14T08:05:48;2.85;;;1.58;;
30020;SDS011;16861;52.294;7.760;2023-03-14T08:08:16;2.60;;;1.48;;
30020;SDS011;16861;52.294;7.760;2023-03-14T08:10:44;2.63;;;1.50;;
30020;SDS011;16861;52.294;7.760;2023-03-14T08:13:10;1.42;;;1.13;;
30020;SDS011;16861;52.294;7.760;2023-03-14T08:15:37;1.98;;;1.27;;
30020;SDS011;16861;52.294;7.760;2023-03-14T08:18:04;3.03;;;1.50;;
30020;SDS011;16861;52.294;7.760;2023-03-14T08:20:31;2.55;;;1.30;;
30020;SDS011;16861;52.294;7.760;2023-03-14T08:22:58;3.90;;;1.48;;
30020;SDS011;16861;52.294;7.760;2023-03-14T08:25:26;2.65;;;1.48;;
30020;SDS011;16861;52.294;7.760;2023-03-14T08:27:53;3.00;;;1.33;;
30020;SDS011;16861;52.294;7.760;2023-03-14T08:30:21;8.18;;;1.88;;
30020;SDS011;16861;52.294;7.760;2023-03-14T08:32:48;3.72;;;1.48;;
30020;SDS011;16861;52.294;7.760;2023-03-14T08:35:15;2.65;;;1.15;;
30020;SDS011;16861;52.294;7.760;2023-03-14T08:37:42;2.20;;;1.50;;
30020;SDS011;16861;52.294;7.760;2023-03-14T08:40:09;2.45;;;1.30;;
30020;SDS011;16861;52.294;7.760;2023-03-14T08:42:38;2.70;;;1.42;;
30020;SDS011;16861;52.294;7.760;2023-03-14T08:45:06;4.05;;;1.30;;
30020;SDS011;16861;52.294;7.760;2023-03-14T08:47:34;1.92;;;1.60;;
30020;SDS011;16861;52.294;7.760;2023-03-14T08:50:01;2.45;;;1.40;;
30020;SDS011;16861;52.294;7.760;2023-03-14T08:52:30;4.00;;;1.80;;
30020;SDS011;16861;52.294;7.760;2023-03-14T08:54:57;2.80;;;1.48;;
30020;SDS011;16861;52.294;7.760;2023-03-14T08:57:25;1.63;;;1.40;;
30020;SDS011;16861;52.294;7.760;2023-03-14T08:59:55;2.65;;;1.58;;
30020;SDS011;16861;52.294;7.760;2023-03-14T09:02:23;1.73;;;1.13;;
30020;SDS011;16861;52.294;7.760;2023-03-14T09:04:51;3.33;;;1.27;;
30020;SDS011;16861;52.294;7.760;2023-03-14T09:07:19;2.08;;;1.30;;
30020;SDS011;16861;52.294;7.760;2023-03-14T09:09:46;1.40;;;1.20;;
30020;SDS011;16861;52.294;7.760;2023-03-14T09:12:12;2.35;;;1.20;;
30020;SDS011;16861;52.294;7.760;2023-03-14T09:14:39;1.27;;;1.17;;
30020;SDS011;16861;52.294;7.760;2023-03-14T09:17:06;2.58;;;0.93;;
30020;SDS011;16861;52.294;7.760;2023-03-14T09:19:33;2.08;;;1.20;;
30020;SDS011;16861;52.294;7.760;2023-03-14T09:21:59;1.27;;;1.05;;
30020;SDS011;16861;52.294;7.760;2023-03-14T09:24:26;2.05;;;0.57;;
30020;SDS011;16861;52.294;7.760;2023-03-14T09:26:52;0.70;;;0.55;;
30020;SDS011;16861;52.294;7.760;2023-03-14T09:29:22;0.63;;;0.30;;
30020;SDS011;16861;52.294;7.760;2023-03-14T09:31:48;0.85;;;0.55;;
30020;SDS011;16861;52.294;7.760;2023-03-14T09:34:15;0.40;;;0.40;;
30020;SDS011;16861;52.294;7.760;2023-03-14T09:36:42;0.40;;;0.30;;
30020;SDS011;16861;52.294;7.760;2023-03-14T09:39:11;1.33;;;0.50;;
30020;SDS011;16861;52.294;7.760;2023-03-14T09:41:39;1.42;;;0.60;;
30020;SDS011;16861;52.294;7.760;2023-03-14T09:44:12;1.58;;;0.95;;
30020;SDS011;16861;52.294;7.760;2023-03-14T09:46:54;1.05;;;0.70;;
30020;SDS011;16861;52.294;7.760;2023-03-14T09:55:06;0.52;;;0.40;;
30020;SDS011;16861;52.294;7.760;2023-03-14T09:57:39;1.40;;;0.52;;
30020;SDS011;16861;52.294;7.760;2023-03-14T10:00:14;1.35;;;0.35;;
30020;SDS011;16861;52.294;7.760;2023-03-14T10:02:53;1.55;;;0.40;;
30020;SDS011;16861;52.294;7.760;2023-03-14T10:05:22;2.00;;;0.40;;
30020;SDS011;16861;52.294;7.760;2023-03-14T10:07:52;1.05;;;0.38;;
30020;SDS011;16861;52.294;7.760;2023-03-14T10:10:20;3.83;;;0.88;;
30020;SDS011;16861;52.294;7.760;2023-03-14T10:12:55;2.42;;;0.40;;
30020;SDS011;16861;52.294;7.760;2023-03-14T10:15:34;0.55;;;0.40;;
30020;SDS011;16861;52.294;7.760;2023-03-14T10:18:03;1.13;;;0.40;;
30020;SDS011;16861;52.294;7.760;2023-03-14T10:20:39;0.25;;;0.20;;
30020;SDS011;16861;52.294;7.760;2023-03-14T10:25:41;0.73;;;0.30;;
30020;SDS011;16861;52.294;7.760;2023-03-14T10:28:23;0.70;;;0.30;;
30020;SDS011;16861;52.294;7.760;2023-03-14T10:31:00;0.70;;;0.43;;
30020;SDS011;16861;52.294;7.760;2023-03-14T10:33:28;1.35;;;0.20;;
30020;SDS011;16861;52.294;7.760;2023-03-14T10:38:43;0.43;;;0.40;;
30020;SDS011;16861;52.294;7.760;2023-03-14T10:41:19;0.30;;;0.30;;
30020;SDS011;16861;52.294;7.760;2023-03-14T10:43:52;0.32;;;0.30;;
30020;SDS011;16861;52.294;7.760;2023-03-14T10:46:23;0.47;;;0.43;;
30020;SDS011;16861;52.294;7.760;2023-03-14T10:48:52;0.52;;;0.40;;
30020;SDS011;16861;52.294;7.760;2023-03-14T10:51:24;1.40;;;0.70;;
30020;SDS011;16861;52.294;7.760;2023-03-14T10:53:59;1.02;;;0.60;;
30020;SDS011;16861;52.294;7.760;2023-03-14T10:56:27;2.17;;;0.57;;
30020;SDS011;16861;52.294;7.760;2023-03-14T10:58:59;1.13;;;0.70;;
30020;SDS011;16861;52.294;7.760;2023-03-14T11:10:04;1.98;;;0.80;;
30020;SDS011;16861;52.294;7.760;2023-03-14T11:13:02;1.92;;;1.05;;
30020;SDS011;16861;52.294;7.760;2023-03-14T11:23:41;4.38;;;0.90;;
30020;SDS011;16861;52.294;7.760;2023-03-14T11:26:41;5.40;;;1.20;;
30020;SDS011;16861;52.294;7.760;2023-03-14T11:31:59;8.95;;;1.38;;
30020;SDS011;16861;52.294;7.760;2023-03-14T11:34:33;8.30;;;1.00;;
30020;SDS011;16861;52.294;7.760;2023-03-14T11:40:17;7.07;;;1.27;;
30020;SDS011;16861;52.294;7.760;2023-03-14T11:45:46;4.95;;;1.10;;
30020;SDS011;16861;52.294;7.760;2023-03-14T11:48:17;6.28;;;1.80;;
30020;SDS011;16861;52.294;7.760;2023-03-14T11:51:02;8.73;;;1.48;;
30020;SDS011;16861;52.294;7.760;2023-03-14T11:55:59;8.82;;;1.90;;
30020;SDS011;16861;52.294;7.760;2023-03-14T11:58:30;7.15;;;1.20;;
30020;SDS011;16861;52.294;7.760;2023-03-14T12:01:02;7.07;;;1.13;;
30020;SDS011;16861;52.294;7.760;2023-03-14T12:08:58;6.28;;;1.63;;
30020;SDS011;16861;52.294;7.760;2023-03-14T12:11:38;12.52;;;2.25;;
30020;SDS011;16861;52.294;7.760;2023-03-14T12:14:16;11.00;;;1.65;;
30020;SDS011;16861;52.294;7.760;2023-03-14T12:16:54;8.50;;;1.70;;
30020;SDS011;16861;52.294;7.760;2023-03-14T12:22:00;15.43;;;2.17;;
30020;SDS011;16861;52.294;7.760;2023-03-14T12:24:29;12.38;;;1.88;;
30020;SDS011;16861;52.294;7.760;2023-03-14T12:26:59;11.05;;;2.40;;
30020;SDS011;16861;52.294;7.760;2023-03-14T12:29:28;13.35;;;3.05;;
30020;SDS011;16861;52.294;7.760;2023-03-14T12:32:06;21.95;;;3.72;;
30020;SDS011;16861;52.294;7.760;2023-03-14T12:34:43;12.98;;;2.95;;
30020;SDS011;16861;52.294;7.760;2023-03-14T12:40:03;10.43;;;2.72;;
30020;SDS011;16861;52.294;7.760;2023-03-14T12:45:33;12.55;;;2.70;;
30020;SDS011;16861;52.294;7.760;2023-03-14T12:50:35;17.98;;;3.47;;
30020;SDS011;16861;52.294;7.760;2023-03-14T13:02:25;11.80;;;2.17;;
30020;SDS011;16861;52.294;7.760;2023-03-14T13:07:32;12.48;;;2.20;;
30020;SDS011;16861;52.294;7.760;2023-03-14T13:10:22;12.38;;;2.13;;
30020;SDS011;16861;52.294;7.760;2023-03-14T13:12:55;15.45;;;2.78;;
30020;SDS011;16861;52.294;7.760;2023-03-14T13:15:24;10.70;;;2.20;;
30020;SDS011;16861;52.294;7.760;2023-03-14T13:18:11;19.35;;;2.58;;
30020;SDS011;16861;52.294;7.760;2023-03-14T13:20:53;13.88;;;2.35;;
30020;SDS011;16861;52.294;7.760;2023-03-14T13:23:24;15.25;;;2.40;;
30020;SDS011;16861;52.294;7.760;2023-03-14T13:25:52;8.27;;;2.45;;
30020;SDS011;16861;52.294;7.760;2023-03-14T13:28:20;18.42;;;2.88;;
30020;SDS011;16861;52.294;7.760;2023-03-14T13:30:47;15.52;;;2.13;;
30020;SDS011;16861;52.294;7.760;2023-03-14T13:33:17;10.70;;;2.22;;
30020;SDS011;16861;52.294;7.760;2023-03-14T13:35:53;7.88;;;2.20;;
30020;SDS011;16861;52.294;7.760;2023-03-14T13:38:23;10.25;;;1.92;;
30020;SDS011;16861;52.294;7.760;2023-03-14T13:40:51;14.15;;;2.15;;
30020;SDS011;16861;52.294;7.760;2023-03-14T13:43:33;6.63;;;1.67;;
30020;SDS011;16861;52.294;7.760;2023-03-14T13:46:06;11.82;;;2.10;;
30020;SDS011;16861;52.294;7.760;2023-03-14T13:48:43;9.63;;;2.00;;
30020;SDS011;16861;52.294;7.760;2023-03-14T13:51:13;12.07;;;1.70;;
30020;SDS011;16861;52.294;7.760;2023-03-14T13:53:45;13.00;;;1.98;;
30020;SDS011;16861;52.294;7.760;2023-03-14T13:56:19;6.53;;;1.73;;
30020;SDS011;16861;52.294;7.760;2023-03-14T13:58:47;10.43;;;2.10;;
30020;SDS011;16861;52.294;7.760;2023-03-14T14:01:18;13.07;;;2.05;;
30020;SDS011;16861;52.294;7.760;2023-03-14T14:03:50;9.15;;;1.52;;
30020;SDS011;16861;52.294;7.760;2023-03-14T14:08:58;7.13;;;1.52;;
30020;SDS011;16861;52.294;7.760;2023-03-14T14:14:20;6.75;;;1.70;;
30020;SDS011;16861;52.294;7.760;2023-03-14T14:16:57;11.43;;;1.73;;
30020;SDS011;16861;52.294;7.760;2023-03-14T14:19:27;7.25;;;1.73;;
30020;SDS011;16861;52.294;7.760;2023-03-14T14:21:56;5.65;;;1.70;;
30020;SDS011;16861;52.294;7.760;2023-03-14T14:24:23;8.23;;;1.85;;
30020;SDS011;16861;52.294;7.760;2023-03-14T14:26:57;7.53;;;1.80;;
30020;SDS011;16861;52.294;7.760;2023-03-14T14:29:31;6.57;;;1.63;;
30020;SDS011;16861;52.294;7.760;2023-03-14T14:32:16;5.30;;;1.27;;
30020;SDS011;16861;52.294;7.760;2023-03-14T14:34:44;7.22;;;1.42;;
30020;SDS011;16861;52.294;7.760;2023-03-14T14:37:29;7.07;;;1.55;;
30020;SDS011;16861;52.294;7.760;2023-03-14T14:39:59;4.18;;;1.58;;
30020;SDS011;16861;52.294;7.760;2023-03-14T14:42:32;5.10;;;1.58;;
30020;SDS011;16861;52.294;7.760;2023-03-14T14:44:59;6.00;;;1.83;;
30020;SDS011;16861;52.294;7.760;2023-03-14T14:47:28;6.72;;;1.30;;
30020;SDS011;16861;52.294;7.760;2023-03-14T14:49:58;4.90;;;1.25;;
30020;SDS011;16861;52.294;7.760;2023-03-14T14:52:34;6.70;;;1.50;;
30020;SDS011;16861;52.294;7.760;2023-03-14T14:55:14;8.82;;;1.70;;
30020;SDS011;16861;52.294;7.760;2023-03-14T14:57:53;8.55;;;1.50;;
30020;SDS011;16861;52.294;7.760;2023-03-14T15:00:23;5.28;;;1.73;;
30020;SDS011;16861;52.294;7.760;2023-03-14T15:02:58;6.70;;;1.55;;
30020;SDS011;16861;52.294;7.760;2023-03-14T15:05:26;2.60;;;1.00;;
30020;SDS011;16861;52.294;7.760;2023-03-14T15:07:56;3.75;;;1.60;;
30020;SDS011;16861;52.294;7.760;2023-03-14T15:10:23;6.63;;;1.70;;
30020;SDS011;16861;52.294;7.760;2023-03-14T15:12:51;6.70;;;1.50;;
30020;SDS011;16861;52.294;7.760;2023-03-14T15:15:18;9.23;;;1.88;;
30020;SDS011;16861;52.294;7.760;2023-03-14T15:17:44;4.93;;;1.33;;
30020;SDS011;16861;52.294;7.760;2023-03-14T15:20:12;9.25;;;1.70;;
30020;SDS011;16861;52.294;7.760;2023-03-14T15:22:41;12.10;;;2.00;;
30020;SDS011;16861;52.294;7.760;2023-03-14T15:25:08;5.88;;;1.58;;
30020;SDS011;16861;52.294;7.760;2023-03-14T15:27:52;6.80;;;1.50;;
30020;SDS011;16861;52.294;7.760;2023-03-14T15:30:18;7.78;;;1.67;;
30020;SDS011;16861;52.294;7.760;2023-03-14T15:32:45;8.23;;;1.13;;
30020;SDS011;16861;52.294;7.760;2023-03-14T15:35:11;4.88;;;1.35;;
30020;SDS011;16861;52.294;7.760;2023-03-14T15:37:42;6.22;;;1.70;;
30020;SDS011;16861;52.294;7.760;2023-03-14T15:40:10;7.32;;;1.27;;
30020;SDS011;16861;52.294;7.760;2023-03-14T15:42:40;5.82;;;0.90;;
30020;SDS011;16861;52.294;7.760;2023-03-14T15:45:07;6.40;;;1.38;;
30020;SDS011;16861;52.294;7.760;2023-03-14T15:47:34;5.32;;;1.35;;
30020;SDS011;16861;52.294;7.760;2023-03-14T15:50:00;3.25;;;1.23;;
30020;SDS011;16861;52.294;7.760;2023-03-14T15:52:27;7.90;;;1.48;;
30020;SDS011;16861;52.294;7.760;2023-03-14T15:54:54;8.20;;;1.33;;
30020;SDS011;16861;52.294;7.760;2023-03-14T15:57:20;6.38;;;1.15;;
30020;SDS011;16861;52.294;7.760;2023-03-14T15:59:47;7.68;;;1.33;;
30020;SDS011;16861;52.294;7.760;2023-03-14T16:02:13;1.98;;;0.90;;
30020;SDS011;16861;52.294;7.760;2023-03-14T16:04:40;7.70;;;1.20;;
30020;SDS011;16861;52.294;7.760;2023-03-14T16:07:06;6.80;;;1.27;;
30020;SDS011;16861;52.294;7.760;2023-03-14T16:09:33;7.05;;;1.30;;
30020;SDS011;16861;52.294;7.760;2023-03-14T16:11:59;9.57;;;1.73;;
30020;SDS011;16861;52.294;7.760;2023-03-14T16:14:26;9.18;;;1.13;;
30020;SDS011;16861;52.294;7.760;2023-03-14T16:16:52;3.40;;;1.17;;
30020;SDS011;16861;52.294;7.760;2023-03-14T16:19:21;6.55;;;1.35;;